^^
Datos históricos de la estación: Murcia-Puente Tocinos
Diario Informe para Abril 8, 2019 Unidades:  Métrico    Inglés   Ambas
Diario Semanal Mensual Anual Configurable
  Máximo: Mínimo: Media:
Temperatura: 23.4 °C 13.5 °C 17.2 °C
Punto de rocio: 10.6 °C 5.8 °C 8.1 °C
Humedad: 70% 36% 56%
Velocidad viento: 14.0km/h 0.0km/h 5.3km/h
Racha viento: 33.3km/h - -
Viento- - SSW
Presión: 1014.0 hPa 1009.9 hPa -
Precipitación: 0.0 mm    
Historical Graphs
 
 
Tabla de datos para Abril 8, 2019
Hora Temperatura Punto de rocio Presión Viento Velocidad viento Racha viento Humedad Intensidad lluvia(por hora) Nubes
00:00 16.3 °C 5.8 °C 1013.9 hPa SE 3.2 km/h 6.4 km/h 50% 0.0 mm CLR
00:05 16.3 °C 5.8 °C 1013.9 hPa SE 3.2 km/h 4.8 km/h 50% 0.0 mm CLR
00:09 16.3 °C 5.8 °C 1013.9 hPa SE 3.2 km/h 5.6 km/h 50% 0.0 mm CLR
00:15 16.2 °C 5.8 °C 1013.9 hPa SE 3.2 km/h 3.2 km/h 50% 0.0 mm CLR
00:19 16.2 °C 5.8 °C 1014.0 hPa SE 3.2 km/h 3.7 km/h 50% 0.0 mm CLR
00:24 16.2 °C 6.1 °C 1014.0 hPa SE 3.2 km/h   51% 0.0 mm CLR
00:29 16.1 °C 6.2 °C 1014.0 hPa Calm     52% 0.0 mm CLR
00:35 16.0 °C 6.2 °C 1013.8 hPa Calm     52% 0.0 mm CLR
00:39 15.9 °C 6.3 °C 1013.8 hPa Calm     53% 0.0 mm CLR
00:45 15.8 °C 6.6 °C 1013.8 hPa Calm     54% 0.0 mm CLR
00:49 15.8 °C 6.2 °C 1013.9 hPa Calm   3.7 km/h 53% 0.0 mm CLR
00:55 15.7 °C 6.1 °C 1013.9 hPa Calm   9.7 km/h 53% 0.0 mm CLR
01:00 15.6 °C 6.3 °C 1013.9 hPa SE 3.2 km/h 8.0 km/h 54% 0.0 mm CLR
01:04 15.4 °C 5.9 °C 1013.9 hPa SSE 3.2 km/h 3.7 km/h 53% 0.0 mm CLR
01:09 15.4 °C 5.9 °C 1013.9 hPa South 3.2 km/h 5.6 km/h 53% 0.0 mm CLR
01:14 15.5 °C 5.9 °C 1013.9 hPa SSW 3.2 km/h 9.3 km/h 53% 0.0 mm CLR
01:19 15.6 °C 5.8 °C 1013.9 hPa SW 4.7 km/h 7.4 km/h 52% 0.0 mm CLR
01:24 15.7 °C 5.9 °C 1013.9 hPa SW 4.7 km/h 5.6 km/h 52% 0.0 mm CLR
01:29 15.7 °C 5.9 °C 1013.9 hPa SW 3.2 km/h 3.7 km/h 52% 0.0 mm CLR
01:34 15.7 °C 6.2 °C 1013.8 hPa SW 3.2 km/h 3.7 km/h 53% 0.0 mm CLR
01:39 15.6 °C 6.1 °C 1013.8 hPa Calm     53% 0.0 mm CLR
01:44 15.4 °C 5.9 °C 1013.8 hPa Calm     53% 0.0 mm CLR
01:49 15.4 °C 6.7 °C 1013.6 hPa Calm   7.4 km/h 56% 0.0 mm CLR
01:54 15.1 °C 6.6 °C 1013.6 hPa Calm   5.6 km/h 57% 0.0 mm CLR
01:59 14.9 °C 6.7 °C 1013.6 hPa ESE 4.7 km/h 5.6 km/h 58% 0.0 mm CLR
02:04 14.8 °C 6.6 °C 1013.5 hPa ESE 4.7 km/h 5.6 km/h 58% 0.0 mm CLR
02:09 14.7 °C 6.8 °C 1013.5 hPa ESE 3.9 km/h 5.6 km/h 59% 0.0 mm CLR
02:14 14.7 °C 6.5 °C 1013.5 hPa SSE 3.9 km/h 7.4 km/h 58% 0.0 mm CLR
02:19 14.7 °C 6.5 °C 1013.3 hPa SSE 3.9 km/h 7.4 km/h 58% 0.0 mm CLR
02:24 14.8 °C 6.6 °C 1013.3 hPa SSW 3.9 km/h 7.4 km/h 58% 0.0 mm CLR
02:29 14.8 °C 6.3 °C 1013.3 hPa SSW 4.7 km/h 5.6 km/h 57% 0.0 mm CLR
02:34 14.9 °C 6.2 °C 1013.3 hPa SSW 4.7 km/h 3.7 km/h 56% 0.0 mm CLR
02:39 14.9 °C 6.7 °C 1013.3 hPa SSW 2.9 km/h 3.7 km/h 58% 0.0 mm CLR
02:44 14.9 °C 6.7 °C 1013.3 hPa SSW 2.9 km/h   58% 0.0 mm CLR
02:49 14.9 °C 6.7 °C 1013.3 hPa Calm   3.9 km/h 58% 0.0 mm CLR
02:54 14.9 °C 6.9 °C 1013.3 hPa Calm   5.6 km/h 59% 0.0 mm CLR
02:59 14.9 °C 6.9 °C 1013.3 hPa South 2.9 km/h 5.6 km/h 59% 0.0 mm CLR
03:04 14.9 °C 6.9 °C 1013.2 hPa South 2.9 km/h 1.9 km/h 59% 0.0 mm CLR
03:09 14.9 °C 6.9 °C 1013.2 hPa South 2.3 km/h   59% 0.0 mm CLR
03:14 14.9 °C 6.9 °C 1013.2 hPa South 2.3 km/h   59% 0.0 mm CLR
03:19 14.8 °C 7.1 °C 1013.2 hPa Calm     60% 0.0 mm CLR
03:24 14.8 °C 7.1 °C 1013.2 hPa Calm   3.7 km/h 60% 0.0 mm CLR
03:29 14.8 °C 7.1 °C 1013.2 hPa South 2.3 km/h 3.7 km/h 60% 0.0 mm CLR
03:34 14.8 °C 7.1 °C 1013.0 hPa South 2.3 km/h   60% 0.0 mm CLR
03:39 14.8 °C 7.1 °C 1013.0 hPa Calm     60% 0.0 mm CLR
03:44 14.8 °C 7.1 °C 1013.0 hPa Calm   5.0 km/h 60% 0.0 mm CLR
03:49 14.7 °C 7.3 °C 1013.0 hPa Calm   5.0 km/h 61% 0.0 mm CLR
03:54 14.7 °C 7.5 °C 1013.0 hPa Calm   3.7 km/h 62% 0.0 mm CLR
03:59 14.6 °C 6.7 °C 1013.0 hPa West 2.9 km/h 3.7 km/h 59% 0.0 mm CLR
04:04 14.6 °C 6.9 °C 1012.8 hPa West 2.9 km/h   60% 0.0 mm CLR
04:09 14.6 °C 7.2 °C 1012.8 hPa Calm   7.4 km/h 61% 0.0 mm CLR
04:14 14.7 °C 7.0 °C 1012.8 hPa Calm   5.6 km/h 60% 0.0 mm CLR
04:19 14.7 °C 7.0 °C 1012.7 hPa SSW 3.2 km/h   60% 0.0 mm CLR
04:24 14.7 °C 7.0 °C 1012.7 hPa SSW 3.2 km/h 5.8 km/h 60% 0.0 mm CLR
04:29 14.7 °C 7.0 °C 1012.7 hPa SSW 2.9 km/h 7.4 km/h 60% 0.0 mm CLR
04:34 14.8 °C 6.8 °C 1012.9 hPa SSW 2.9 km/h 9.3 km/h 59% 0.0 mm CLR
04:39 14.7 °C 7.0 °C 1012.9 hPa South 6.9 km/h 9.3 km/h 60% 0.0 mm CLR
04:44 14.7 °C 7.0 °C 1012.9 hPa SSW 6.9 km/h 7.4 km/h 60% 0.0 mm CLR
04:49 14.7 °C 7.0 °C 1012.7 hPa SSW 5.8 km/h 6.9 km/h 60% 0.0 mm CLR
04:54 14.7 °C 7.0 °C 1012.7 hPa SSW 5.8 km/h 7.4 km/h 60% 0.0 mm CLR
04:59 14.7 °C 7.0 °C 1012.7 hPa SSW 5.0 km/h 7.4 km/h 60% 0.0 mm CLR
05:04 14.7 °C 7.0 °C 1012.6 hPa SW 5.0 km/h 7.4 km/h 60% 0.0 mm CLR
05:09 14.7 °C 7.0 °C 1012.6 hPa SSW 5.0 km/h 7.6 km/h 60% 0.0 mm CLR
05:14 14.7 °C 7.0 °C 1012.6 hPa South 5.0 km/h 11.1 km/h 60% 0.0 mm CLR
05:19 14.7 °C 7.0 °C 1012.6 hPa SSW 6.9 km/h 9.3 km/h 60% 0.0 mm CLR
05:24 14.7 °C 7.0 °C 1012.6 hPa SW 6.9 km/h 7.4 km/h 60% 0.0 mm CLR
05:29 14.6 °C 6.9 °C 1012.6 hPa SW 6.4 km/h 7.4 km/h 60% 0.0 mm CLR
05:34 14.6 °C 6.9 °C 1012.7 hPa WSW 6.4 km/h 7.4 km/h 60% 0.0 mm CLR
05:39 14.6 °C 6.9 °C 1012.7 hPa WSW 5.0 km/h 3.7 km/h 60% 0.0 mm CLR
05:44 14.6 °C 6.9 °C 1012.7 hPa South 5.0 km/h 7.4 km/h 60% 0.0 mm CLR
05:49 14.7 °C 7.0 °C 1012.4 hPa South 4.7 km/h 7.4 km/h 60% 0.0 mm CLR
05:54 14.6 °C 7.2 °C 1012.4 hPa South 4.7 km/h 11.1 km/h 61% 0.0 mm CLR
05:59 14.4 °C 7.2 °C 1012.4 hPa SW 6.4 km/h 9.5 km/h 62% 0.0 mm CLR
06:04 14.3 °C 7.3 °C 1012.5 hPa SW 6.4 km/h 9.3 km/h 63% 0.0 mm CLR
06:09 14.3 °C 7.3 °C 1012.5 hPa SSW 6.9 km/h 9.3 km/h 63% 0.0 mm CLR
06:14 14.3 °C 7.1 °C 1012.5 hPa SSW 6.9 km/h 9.3 km/h 62% 0.0 mm CLR
06:19 14.3 °C 7.1 °C 1012.3 hPa SSW 6.4 km/h 9.3 km/h 62% 0.0 mm CLR
06:24 14.2 °C 7.3 °C 1012.3 hPa SSW 6.4 km/h 11.1 km/h 63% 0.0 mm CLR
06:29 14.2 °C 7.3 °C 1012.3 hPa SW 5.8 km/h 7.4 km/h 63% 0.0 mm CLR
06:34 14.2 °C 7.3 °C 1012.3 hPa West 5.8 km/h 8.7 km/h 63% 0.0 mm CLR
06:39 14.2 °C 7.3 °C 1012.3 hPa WSW 5.8 km/h 7.4 km/h 63% 0.0 mm CLR
06:44 14.2 °C 7.3 °C 1012.3 hPa SW 5.8 km/h 7.4 km/h 63% 0.0 mm CLR
06:49 14.2 °C 7.3 °C 1012.3 hPa SW 5.0 km/h 7.4 km/h 63% 0.0 mm CLR
06:54 14.2 °C 7.3 °C 1012.3 hPa SW 5.0 km/h 7.4 km/h 63% 0.0 mm CLR
06:59 14.3 °C 7.3 °C 1012.3 hPa SW 5.0 km/h 7.4 km/h 63% 0.0 mm CLR
07:04 14.3 °C 7.3 °C 1012.3 hPa SW 5.0 km/h 5.6 km/h 63% 0.0 mm CLR
07:09 14.3 °C 7.3 °C 1012.3 hPa SW 3.2 km/h 7.4 km/h 63% 0.0 mm CLR
07:14 14.2 °C 7.5 °C 1012.3 hPa WSW 3.2 km/h 7.4 km/h 64% 0.0 mm CLR
07:19 14.2 °C 7.5 °C 1012.5 hPa WSW 5.0 km/h 7.6 km/h 64% 0.0 mm CLR
07:24 14.1 °C 7.4 °C 1012.5 hPa WSW 5.0 km/h 8.7 km/h 64% 0.0 mm CLR
07:29 14.1 °C 7.6 °C 1012.5 hPa SW 5.8 km/h 9.3 km/h 65% 0.0 mm CLR
07:34 14.0 °C 7.5 °C 1012.5 hPa SW 5.8 km/h 11.1 km/h 65% 0.0 mm CLR
07:39 14.0 °C 7.5 °C 1012.5 hPa SSW 6.9 km/h 9.3 km/h 65% 0.0 mm CLR
07:44 14.1 °C 7.8 °C 1012.5 hPa SW 6.9 km/h 5.8 km/h 66% 0.0 mm CLR
07:49 14.1 °C 7.8 °C 1012.4 hPa WSW 5.0 km/h 5.6 km/h 66% 0.0 mm CLR
07:54 14.1 °C 7.8 °C 1012.4 hPa WSW 5.0 km/h 4.7 km/h 66% 0.0 mm CLR
07:59 14.1 °C 7.8 °C 1012.4 hPa WSW 3.2 km/h 3.7 km/h 66% 0.0 mm CLR
08:04 14.1 °C 7.8 °C 1012.7 hPa WSW 3.2 km/h   66% 0.0 mm CLR
08:09 14.0 °C 7.9 °C 1012.7 hPa WSW 2.3 km/h 5.6 km/h 67% 0.0 mm CLR
08:14 13.9 °C 7.9 °C 1012.7 hPa WSW 2.3 km/h 7.4 km/h 67% 0.0 mm CLR
08:19 13.9 °C 7.9 °C 1012.8 hPa SW 4.7 km/h 9.5 km/h 67% 0.0 mm CLR
08:24 13.9 °C 7.9 °C 1012.8 hPa SSE 4.7 km/h 7.4 km/h 67% 0.0 mm CLR
08:29 13.7 °C 8.1 °C 1012.8 hPa SSE 6.4 km/h 13.0 km/h 69% 0.0 mm CLR
08:34 13.6 °C 8.2 °C 1013.1 hPa SSW 6.4 km/h 9.3 km/h 70% 0.0 mm CLR
08:39 13.5 °C 8.1 °C 1013.1 hPa South 7.6 km/h 11.1 km/h 70% 0.0 mm CLR
08:44 13.5 °C 8.1 °C 1013.1 hPa South 7.6 km/h 11.1 km/h 70% 0.0 mm CLR
08:49 13.5 °C 7.9 °C 1013.1 hPa SSW 8.4 km/h 9.3 km/h 69% 0.0 mm CLR
08:54 13.6 °C 8.0 °C 1013.1 hPa SSW 8.4 km/h 7.6 km/h 69% 0.0 mm CLR
08:59 13.7 °C 8.1 °C 1013.1 hPa South 6.4 km/h 9.3 km/h 69% 0.0 mm CLR
09:04 13.7 °C 8.1 °C 1013.0 hPa South 6.4 km/h 7.4 km/h 69% 0.0 mm CLR
09:09 13.7 °C 8.1 °C 1013.0 hPa SSW 5.0 km/h 7.4 km/h 69% 0.0 mm CLR
09:14 13.8 °C 8.2 °C 1013.0 hPa SW 5.0 km/h 9.3 km/h 69% 0.0 mm CLR
09:19 13.8 °C 8.2 °C 1013.2 hPa SW 5.0 km/h 9.3 km/h 69% 0.0 mm CLR
09:24 13.8 °C 8.0 °C 1013.2 hPa WSW 5.0 km/h 11.1 km/h 68% 0.0 mm CLR
09:29 13.9 °C 8.1 °C 1013.2 hPa West 5.8 km/h 7.4 km/h 68% 0.0 mm CLR
09:34 13.9 °C 8.1 °C 1013.2 hPa West 5.8 km/h 9.3 km/h 68% 0.0 mm CLR
09:39 13.9 °C 8.1 °C 1013.2 hPa West 5.8 km/h 11.1 km/h 68% 0.0 mm CLR
09:44 13.9 °C 8.1 °C 1013.2 hPa West 5.8 km/h 11.1 km/h 68% 0.0 mm CLR
09:49 13.9 °C 8.3 °C 1013.2 hPa WNW 6.9 km/h 11.1 km/h 69% 0.0 mm CLR
09:54 13.9 °C 8.3 °C 1013.2 hPa WNW 6.9 km/h 11.1 km/h 69% 0.0 mm CLR
09:59 13.8 °C 8.2 °C 1013.2 hPa West 6.9 km/h 3.7 km/h 69% 0.0 mm CLR
10:04 13.9 °C 8.3 °C 1013.3 hPa South 6.9 km/h 7.4 km/h 69% 0.0 mm CLR
10:09 13.9 °C 8.3 °C 1013.3 hPa SW 3.9 km/h 6.9 km/h 69% 0.0 mm CLR
10:14 14.0 °C 8.2 °C 1013.3 hPa South 3.9 km/h 7.6 km/h 68% 0.0 mm CLR
10:19 13.9 °C 8.5 °C 1013.2 hPa SSE 5.0 km/h 9.3 km/h 70% 0.0 mm CLR
10:24 13.9 °C 8.5 °C 1013.2 hPa SSE 5.0 km/h 3.7 km/h 70% 0.0 mm CLR
10:29 14.0 °C 8.6 °C 1013.2 hPa SSE 3.9 km/h 2.3 km/h 70% 0.0 mm CLR
10:34 14.1 °C 8.5 °C 1013.2 hPa SSE 3.9 km/h 3.7 km/h 69% 0.0 mm CLR
10:39 14.2 °C 8.6 °C 1013.2 hPa Calm   3.7 km/h 69% 0.0 mm CLR
10:44 14.3 °C 8.7 °C 1013.2 hPa Calm   3.2 km/h 69% 0.0 mm CLR
10:49 14.4 °C 8.6 °C 1013.0 hPa Calm   5.6 km/h 68% 0.0 mm CLR
10:54 14.5 °C 8.7 °C 1013.0 hPa Calm   5.0 km/h 68% 0.0 mm CLR
10:59 14.6 °C 9.0 °C 1013.0 hPa SE 3.9 km/h 9.3 km/h 69% 0.0 mm CLR
11:04 14.5 °C 8.9 °C 1013.2 hPa SE 3.9 km/h 5.6 km/h 69% 0.0 mm CLR
11:09 14.6 °C 8.8 °C 1013.2 hPa SSE 4.7 km/h 5.6 km/h 68% 0.0 mm CLR
11:14 14.7 °C 8.8 °C 1013.2 hPa South 4.7 km/h 7.4 km/h 68% 0.0 mm CLR
11:19 14.8 °C 8.7 °C 1013.3 hPa SSE 4.7 km/h 9.3 km/h 67% 0.0 mm CLR
11:24 14.8 °C 8.7 °C 1013.3 hPa South 4.7 km/h 9.3 km/h 67% 0.0 mm CLR
11:29 15.0 °C 8.7 °C 1013.3 hPa SSW 6.4 km/h 7.4 km/h 66% 0.0 mm CLR
11:34 15.2 °C 8.7 °C 1013.5 hPa SSW 6.4 km/h 9.3 km/h 65% 0.0 mm CLR
11:39 15.4 °C 8.8 °C 1013.5 hPa South 5.8 km/h 7.4 km/h 65% 0.0 mm CLR
11:44 15.7 °C 8.9 °C 1013.5 hPa West 5.8 km/h 7.4 km/h 64% 0.0 mm CLR
11:49 16.0 °C 8.9 °C 1013.5 hPa SSE 4.7 km/h 7.4 km/h 63% 0.0 mm CLR
11:54 16.2 °C 8.9 °C 1013.5 hPa SSW 4.7 km/h 9.3 km/h 62% 0.0 mm CLR
11:59 16.2 °C 8.7 °C 1013.5 hPa SSE 6.4 km/h 9.3 km/h 61% 0.0 mm CLR
12:04 16.3 °C 8.5 °C 1013.3 hPa South 6.4 km/h 7.4 km/h 60% 0.0 mm CLR
12:09 16.4 °C 8.6 °C 1013.3 hPa South 5.0 km/h 8.4 km/h 60% 0.0 mm CLR
12:14 16.5 °C 8.7 °C 1013.3 hPa South 5.0 km/h 9.3 km/h 60% 0.0 mm CLR
12:19 16.7 °C 8.7 °C 1013.3 hPa SSE 5.8 km/h 9.5 km/h 59% 0.0 mm CLR
12:24 16.8 °C 8.7 °C 1013.3 hPa SSW 5.8 km/h 9.3 km/h 59% 0.0 mm CLR
12:29 16.8 °C 8.7 °C 1013.3 hPa SW 6.9 km/h 13.0 km/h 59% 0.0 mm CLR
12:34 17.0 °C 8.7 °C 1013.1 hPa SW 6.9 km/h 7.4 km/h 58% 0.0 mm CLR
12:39 17.2 °C 8.8 °C 1013.1 hPa SW 5.8 km/h 5.6 km/h 58% 0.0 mm CLR
12:44 17.6 °C 9.0 °C 1013.1 hPa South 5.8 km/h 11.1 km/h 57% 0.0 mm CLR
12:49 17.8 °C 8.9 °C 1013.0 hPa SW 5.0 km/h 9.3 km/h 56% 0.0 mm CLR
12:54 18.0 °C 8.8 °C 1013.0 hPa WSW 5.0 km/h 5.6 km/h 55% 0.0 mm CLR
12:59 18.2 °C 9.0 °C 1013.0 hPa WSW 4.7 km/h 7.4 km/h 55% 0.0 mm CLR
13:05 18.4 °C 8.9 °C 1012.8 hPa SE 4.7 km/h 5.6 km/h 54% 0.0 mm CLR
13:09 18.7 °C 8.6 °C 1012.8 hPa WSW 3.2 km/h 7.4 km/h 52% 0.0 mm CLR
13:14 18.9 °C 8.8 °C 1012.8 hPa SSW 3.2 km/h 5.6 km/h 52% 0.0 mm CLR
13:19 19.2 °C 8.2 °C 1012.6 hPa West 4.7 km/h 11.1 km/h 49% 0.0 mm CLR
13:24 19.2 °C 8.5 °C 1012.6 hPa West 4.7 km/h 7.4 km/h 50% 0.0 mm CLR
13:29 19.4 °C 8.4 °C 1012.6 hPa WNW 6.4 km/h 8.4 km/h 49% 0.0 mm CLR
13:34 19.6 °C 8.6 °C 1012.6 hPa NW 6.4 km/h 7.4 km/h 49% 0.0 mm CLR
13:39 19.9 °C 8.9 °C 1012.6 hPa South 3.9 km/h 5.6 km/h 49% 0.0 mm CLR
13:44 20.1 °C 8.4 °C 1012.6 hPa WSW 3.9 km/h 13.0 km/h 47% 0.0 mm CLR
13:49 20.0 °C 8.0 °C 1012.4 hPa West 6.4 km/h 18.5 km/h 46% 0.0 mm CLR
13:54 19.9 °C 7.9 °C 1012.4 hPa NW 6.4 km/h 14.8 km/h 46% 0.0 mm CLR
13:59 19.9 °C 8.2 °C 1012.4 hPa WSW 11.1 km/h 16.7 km/h 47% 0.0 mm CLR
14:05 20.2 °C 8.2 °C 1012.3 hPa West 11.1 km/h 16.7 km/h 46% 0.0 mm CLR
14:09 20.3 °C 7.9 °C 1012.3 hPa South 10.0 km/h 16.7 km/h 45% 0.0 mm CLR
14:14 20.4 °C 7.7 °C 1012.3 hPa NW 10.0 km/h 14.8 km/h 44% 0.0 mm CLR
14:19 20.6 °C 7.6 °C 1012.1 hPa SW 9.5 km/h 16.7 km/h 43% 0.0 mm CLR
14:25 20.7 °C 7.3 °C 1012.1 hPa SW 9.5 km/h 11.1 km/h 42% 0.0 mm CLR
14:29 20.8 °C 7.8 °C 1012.1 hPa SSW 8.7 km/h 13.0 km/h 43% 0.0 mm CLR
14:34 20.9 °C 7.8 °C 1012.1 hPa WSW 8.7 km/h 11.9 km/h 43% 0.0 mm CLR
14:39 20.9 °C 7.5 °C 1012.1 hPa South 7.6 km/h 13.0 km/h 42% 0.0 mm CLR
14:44 20.9 °C 7.8 °C 1012.1 hPa South 7.6 km/h 14.8 km/h 43% 0.0 mm CLR
14:49 20.8 °C 7.8 °C 1012.0 hPa SW 8.7 km/h 13.0 km/h 43% 0.0 mm CLR
14:54 21.1 °C 8.0 °C 1012.0 hPa WNW 8.7 km/h 13.7 km/h 43% 0.0 mm CLR
14:59 21.2 °C 8.1 °C 1012.0 hPa WNW 7.6 km/h 13.0 km/h 43% 0.0 mm CLR
15:05 21.4 °C 7.9 °C 1011.8 hPa West 7.6 km/h 13.0 km/h 42% 0.0 mm CLR
15:09 21.4 °C 7.9 °C 1011.8 hPa WSW 8.4 km/h 18.5 km/h 42% 0.0 mm CLR
15:14 21.4 °C 7.9 °C 1011.8 hPa SW 8.4 km/h 16.7 km/h 42% 0.0 mm CLR
15:19 21.5 °C 8.1 °C 1011.5 hPa SW 10.3 km/h 13.0 km/h 42% 0.0 mm CLR
15:24 21.6 °C 8.1 °C 1011.5 hPa SW 10.3 km/h 13.0 km/h 42% 0.0 mm CLR
15:29 21.8 °C 7.9 °C 1011.5 hPa SSE 8.4 km/h 9.3 km/h 41% 0.0 mm CLR
15:34 21.8 °C 7.9 °C 1011.3 hPa South 8.4 km/h 14.8 km/h 41% 0.0 mm CLR
15:39 21.9 °C 8.1 °C 1011.3 hPa SW 6.9 km/h 12.2 km/h 41% 0.0 mm CLR
15:44 22.2 °C 7.9 °C 1011.3 hPa SSW 6.9 km/h 22.2 km/h 40% 0.0 mm CLR
15:49 21.9 °C 8.1 °C 1011.0 hPa SSW 11.1 km/h 11.9 km/h 41% 0.0 mm CLR
15:54 21.8 °C 7.9 °C 1011.0 hPa WSW 11.1 km/h 13.0 km/h 41% 0.0 mm CLR
15:59 21.9 °C 8.1 °C 1011.0 hPa SSW 10.0 km/h 16.7 km/h 41% 0.0 mm CLR
16:04 22.1 °C 7.9 °C 1010.8 hPa WNW 10.0 km/h 16.7 km/h 40% 0.0 mm CLR
16:09 22.2 °C 7.9 °C 1010.8 hPa South 9.5 km/h 7.4 km/h 40% 0.0 mm CLR
16:14 22.6 °C 8.3 °C 1010.8 hPa SSW 9.5 km/h 11.1 km/h 40% 0.0 mm CLR
16:19 22.7 °C 8.0 °C 1010.7 hPa WSW 6.9 km/h 16.7 km/h 39% 0.0 mm CLR
16:24 22.7 °C 8.0 °C 1010.7 hPa SSW 6.9 km/h 9.3 km/h 39% 0.0 mm CLR
16:29 22.8 °C 7.7 °C 1010.7 hPa SSE 9.5 km/h 11.1 km/h 38% 0.0 mm CLR
16:34 22.6 °C 7.6 °C 1010.6 hPa East 9.5 km/h 11.1 km/h 38% 0.0 mm CLR
16:39 22.7 °C 8.0 °C 1010.6 hPa SSW 5.8 km/h 9.3 km/h 39% 0.0 mm CLR
16:44 22.8 °C 8.1 °C 1010.6 hPa West 5.8 km/h 13.0 km/h 39% 0.0 mm CLR
16:49 22.8 °C 8.1 °C 1010.4 hPa West 8.4 km/h 9.3 km/h 39% 0.0 mm CLR
16:54 23.1 °C 8.0 °C 1010.4 hPa NW 8.4 km/h 5.8 km/h 38% 0.0 mm CLR
16:59 23.4 °C 7.9 °C 1010.4 hPa SW 3.9 km/h 13.0 km/h 37% 0.0 mm CLR
17:04 23.2 °C 7.7 °C 1010.2 hPa West 3.9 km/h 24.1 km/h 37% 0.0 mm CLR
17:09 23.0 °C 7.1 °C 1010.2 hPa West 10.0 km/h 14.8 km/h 36% 0.0 mm CLR
17:15 22.8 °C 7.3 °C 1010.2 hPa WSW 10.0 km/h 11.1 km/h 37% 0.0 mm CLR
17:19 22.7 °C 7.7 °C 1010.0 hPa SW 8.7 km/h 9.5 km/h 38% 0.0 mm CLR
17:24 22.7 °C 7.3 °C 1010.0 hPa WNW 8.7 km/h 13.0 km/h 37% 0.0 mm CLR
17:29 22.6 °C 7.2 °C 1010.0 hPa WNW 8.7 km/h 11.1 km/h 37% 0.0 mm CLR
17:34 22.7 °C 7.7 °C 1010.1 hPa West 8.7 km/h 16.7 km/h 38% 0.0 mm CLR
17:39 22.6 °C 7.6 °C 1010.1 hPa WSW 8.4 km/h 16.1 km/h 38% 0.0 mm CLR
17:44 22.6 °C 7.6 °C 1010.1 hPa West 8.4 km/h 13.0 km/h 38% 0.0 mm CLR
17:49 22.6 °C 7.6 °C 1009.9 hPa West 7.6 km/h 16.7 km/h 38% 0.0 mm CLR
17:54 22.6 °C 7.6 °C 1009.9 hPa West 7.6 km/h 16.7 km/h 38% 0.0 mm CLR
17:59 22.4 °C 7.8 °C 1009.9 hPa WSW 10.3 km/h 11.1 km/h 39% 0.0 mm CLR
18:04 22.4 °C 8.1 °C 1010.1 hPa WNW 10.3 km/h 16.7 km/h 40% 0.0 mm CLR
18:09 22.3 °C 8.8 °C 1010.1 hPa WNW 8.7 km/h 20.4 km/h 42% 0.0 mm CLR
18:14 21.9 °C 9.1 °C 1010.1 hPa NW 8.7 km/h 9.3 km/h 44% 0.0 mm CLR
18:19 21.8 °C 8.7 °C 1010.3 hPa West 9.5 km/h 20.1 km/h 43% 0.0 mm CLR
18:25 21.3 °C 8.9 °C 1010.3 hPa NW 9.5 km/h 33.3 km/h 45% 0.0 mm CLR
18:29 20.8 °C 9.4 °C 1010.3 hPa WNW 14.0 km/h 25.9 km/h 48% 0.0 mm CLR
18:34 20.1 °C 9.9 °C 1010.4 hPa NW 14.0 km/h 22.2 km/h 52% 0.0 mm CLR
18:39 19.7 °C 10.1 °C 1010.4 hPa NNW 13.7 km/h 14.8 km/h 54% 0.0 mm CLR
18:45 19.7 °C 10.1 °C 1010.4 hPa WNW 13.7 km/h 14.8 km/h 54% 0.0 mm CLR
18:49 19.6 °C 10.1 °C 1010.3 hPa WNW 9.5 km/h 18.5 km/h 54% 0.0 mm CLR
18:54 19.6 °C 10.3 °C 1010.3 hPa NW 9.5 km/h 14.8 km/h 55% 0.0 mm CLR
18:59 19.6 °C 10.6 °C 1010.3 hPa NW 9.5 km/h 14.8 km/h 56% 0.0 mm CLR
19:05 19.6 °C 10.6 °C 1010.4 hPa NW 9.7 km/h 12.9 km/h 56% 0.0 mm CLR
19:09 19.6 °C 10.3 °C 1010.4 hPa NNW 6.9 km/h 3.7 km/h 55% 0.0 mm CLR
19:15 19.6 °C 10.3 °C 1010.4 hPa North 8.0 km/h 8.0 km/h 55% 0.0 mm CLR
19:19 19.7 °C 10.4 °C 1010.5 hPa ESE 5.0 km/h 11.1 km/h 55% 0.0 mm CLR
19:24 19.7 °C 10.1 °C 1010.5 hPa SE 5.0 km/h 13.0 km/h 54% 0.0 mm CLR
19:29 19.7 °C 10.1 °C 1010.5 hPa ESE 8.4 km/h 11.1 km/h 54% 0.0 mm CLR
19:34 19.8 °C 9.9 °C 1010.5 hPa ESE 8.4 km/h 11.1 km/h 53% 0.0 mm CLR
19:39 19.7 °C 9.8 °C 1010.5 hPa ENE 8.4 km/h 9.3 km/h 53% 0.0 mm CLR
19:45 19.7 °C 9.8 °C 1010.5 hPa ENE 8.4 km/h   53% 0.0 mm CLR
19:49 19.7 °C 9.8 °C 1010.7 hPa East 2.9 km/h 5.0 km/h 53% 0.0 mm CLR
19:54 19.6 °C 9.8 °C 1010.7 hPa ESE 2.9 km/h 7.4 km/h 53% 0.0 mm CLR
19:59 19.6 °C 9.8 °C 1010.7 hPa ESE 3.2 km/h 5.6 km/h 53% 0.0 mm CLR
20:04 19.6 °C 9.8 °C 1010.7 hPa ENE 3.2 km/h 7.4 km/h 53% 0.0 mm CLR
20:09 19.6 °C 9.8 °C 1010.7 hPa ENE 3.2 km/h 3.7 km/h 53% 0.0 mm CLR
20:15 19.6 °C 9.8 °C 1010.7 hPa ENE 3.2 km/h 4.8 km/h 53% 0.0 mm CLR
20:19 19.6 °C 9.8 °C 1010.7 hPa NE 2.3 km/h 5.6 km/h 53% 0.0 mm CLR
20:25 19.6 °C 9.7 °C 1010.7 hPa NE 1.6 km/h 4.8 km/h 53% 0.0 mm CLR
20:29 19.5 °C 9.7 °C 1010.7 hPa East 3.2 km/h 7.6 km/h 53% 0.0 mm CLR
20:34 19.4 °C 9.6 °C 1010.5 hPa ESE 3.2 km/h 11.1 km/h 53% 0.0 mm CLR
20:39 19.3 °C 9.5 °C 1010.5 hPa ENE 6.4 km/h 7.4 km/h 53% 0.0 mm CLR
20:44 19.3 °C 9.8 °C 1010.5 hPa ENE 6.4 km/h   54% 0.0 mm CLR
20:49 19.2 °C 9.7 °C 1010.7 hPa ESE 2.9 km/h 7.4 km/h 54% 0.0 mm CLR
20:55 19.2 °C 9.7 °C 1010.7 hPa East 2.9 km/h 5.6 km/h 54% 0.0 mm CLR
20:59 19.1 °C 9.8 °C 1010.7 hPa East 4.7 km/h 7.4 km/h 55% 0.0 mm CLR
21:05 19.0 °C 9.8 °C 1010.6 hPa East 3.2 km/h 8.0 km/h 55% 0.0 mm CLR
21:09 19.0 °C 9.8 °C 1010.6 hPa ESE 4.7 km/h 7.4 km/h 55% 0.0 mm CLR
21:14 18.9 °C 9.7 °C 1010.6 hPa ESE 4.7 km/h 7.4 km/h 55% 0.0 mm CLR
21:19 18.8 °C 9.6 °C 1010.8 hPa SE 5.0 km/h 9.3 km/h 55% 0.0 mm CLR
21:25 18.7 °C 9.7 °C 1010.8 hPa SE 4.8 km/h 9.7 km/h 56% 0.0 mm CLR
21:30 18.6 °C 9.7 °C 1010.8 hPa SE 5.0 km/h 5.6 km/h 56% 0.0 mm CLR
21:35 18.6 °C 9.7 °C 1011.0 hPa SE 4.8 km/h 4.8 km/h 56% 0.0 mm CLR
21:39 18.6 °C 9.7 °C 1011.0 hPa SE 2.3 km/h 1.9 km/h 56% 0.0 mm CLR
21:44 18.6 °C 9.7 °C 1011.0 hPa SE 2.3 km/h   56% 0.0 mm CLR
21:49 18.6 °C 9.7 °C 1011.2 hPa Calm   3.7 km/h 56% 0.0 mm CLR
21:54 18.6 °C 9.7 °C 1011.2 hPa Calm   7.4 km/h 56% 0.0 mm CLR
21:59 18.5 °C 9.8 °C 1011.2 hPa SE 3.2 km/h 5.6 km/h 57% 0.0 mm CLR
22:05 18.4 °C 10.0 °C 1011.3 hPa ESE 3.2 km/h 8.0 km/h 58% 0.0 mm CLR
22:09 18.3 °C 9.9 °C 1011.3 hPa NW 3.2 km/h   58% 0.0 mm CLR
22:14 18.2 °C 10.1 °C 1011.3 hPa NW 3.2 km/h 1.9 km/h 59% 0.0 mm CLR
22:19 18.1 °C 9.9 °C 1011.5 hPa Calm   3.2 km/h 59% 0.0 mm CLR
22:25 18.1 °C 9.9 °C 1011.5 hPa Calm     59% 0.0 mm CLR
22:29 18.1 °C 9.9 °C 1011.5 hPa Calm   5.8 km/h 59% 0.0 mm CLR
22:35 18.1 °C 10.2 °C 1011.5 hPa Calm   9.7 km/h 60% 0.0 mm CLR
22:39 18.0 °C 10.4 °C 1011.5 hPa SE 3.9 km/h 7.6 km/h 61% 0.0 mm CLR
22:45 17.8 °C 10.2 °C 1011.5 hPa SE 3.9 km/h 13.0 km/h 61% 0.0 mm CLR
22:49 17.6 °C 10.0 °C 1011.7 hPa SSE 7.6 km/h 11.1 km/h 61% 0.0 mm CLR
22:55 17.6 °C 10.0 °C 1011.7 hPa SSE 8.0 km/h 12.9 km/h 61% 0.0 mm CLR
22:59 17.7 °C 10.1 °C 1011.7 hPa ESE 6.9 km/h 9.3 km/h 61% 0.0 mm CLR
23:05 17.6 °C 10.2 °C 1011.4 hPa SE 8.0 km/h 11.3 km/h 62% 0.0 mm CLR
23:09 17.6 °C 10.2 °C 1011.4 hPa SSE 5.0 km/h 6.4 km/h 62% 0.0 mm CLR
23:15 17.4 °C 10.3 °C 1011.4 hPa SE 4.8 km/h 8.0 km/h 63% 0.0 mm CLR
23:19 17.4 °C 10.3 °C 1011.3 hPa WSW 4.7 km/h 9.3 km/h 63% 0.0 mm CLR
23:24 17.4 °C 10.3 °C 1011.3 hPa West 4.7 km/h 7.4 km/h 63% 0.0 mm CLR
23:29 17.3 °C 9.9 °C 1011.3 hPa WNW 4.7 km/h 7.4 km/h 62% 0.0 mm CLR
23:35 17.3 °C 9.9 °C 1011.2 hPa West 4.7 km/h 9.3 km/h 62% 0.0 mm CLR
23:39 17.3 °C 9.9 °C 1011.2 hPa West 5.0 km/h 7.4 km/h 62% 0.0 mm CLR
23:45 17.2 °C 9.8 °C 1011.2 hPa SSW 5.0 km/h 9.3 km/h 62% 0.0 mm CLR
23:49 17.3 °C 9.9 °C 1011.0 hPa SW 6.4 km/h 11.1 km/h 62% 0.0 mm CLR
23:54 17.4 °C 9.8 °C 1011.0 hPa WSW 6.4 km/h 16.7 km/h 61% 0.0 mm CLR
Murcia-Puente Tocinos, España
Compliments of Weather Underground - 2.75 mb

La estación de MeteoMurcia.com, publica sus datos en los siguientes proyectos:

Weather Underground PWS IMURCIAP2 Meteoclimatic www.awekas.at

W3Counter
Web Analytics